createdAt,value
2022-08-17T00:01:24.155Z,14.90
2022-08-17T00:03:54.939Z,10.60
2022-08-17T00:06:23.748Z,7.83
2022-08-17T00:08:53.216Z,9.90
2022-08-17T00:11:22.808Z,10.77
2022-08-17T00:13:50.965Z,7.70
2022-08-17T00:16:56.101Z,9.93
2022-08-17T00:19:12.445Z,11.90
2022-08-17T00:22:29.783Z,13.00
2022-08-17T00:24:29.200Z,11.70
2022-08-17T00:26:56.357Z,12.57
2022-08-17T00:29:23.500Z,8.30
2022-08-17T00:31:50.718Z,7.80
2022-08-17T00:34:18.222Z,9.30
2022-08-17T00:36:45.463Z,11.50
2022-08-17T00:39:12.618Z,7.80
2022-08-17T00:41:42.662Z,10.10
2022-08-17T00:44:10.066Z,10.80
2022-08-17T00:46:38.268Z,10.90
2022-08-17T00:49:06.375Z,10.90
2022-08-17T00:51:42.357Z,17.13
2022-08-17T00:54:11.523Z,15.30
2022-08-17T00:56:42.301Z,12.80
2022-08-17T00:59:11.930Z,10.67
2022-08-17T01:01:39.667Z,10.97
2022-08-17T01:04:06.991Z,10.90
2022-08-17T01:06:34.415Z,10.80
2022-08-17T01:09:02.177Z,9.00
2022-08-17T01:11:30.667Z,11.40
2022-08-17T01:13:57.827Z,9.80
2022-08-17T01:16:27.302Z,8.80
2022-08-17T01:18:55.884Z,9.17
2022-08-17T01:21:25.147Z,9.83
2022-08-17T01:23:53.796Z,9.50
2022-08-17T01:26:21.055Z,8.50
2022-08-17T01:28:54.136Z,7.97
2022-08-17T01:31:23.858Z,8.57
2022-08-17T01:33:51.027Z,9.30
2022-08-17T01:36:18.255Z,14.03
2022-08-17T01:38:45.429Z,8.93
2022-08-17T01:41:15.903Z,8.00
2022-08-17T01:43:45.167Z,9.00
2022-08-17T01:46:15.203Z,10.23
2022-08-17T01:48:42.332Z,9.37
2022-08-17T01:51:09.645Z,7.20
2022-08-17T01:53:38.482Z,8.67
2022-08-17T01:56:07.279Z,8.23
2022-08-17T01:58:36.480Z,11.30
2022-08-17T02:01:04.578Z,8.50
2022-08-17T02:03:32.093Z,11.63
2022-08-17T02:05:59.374Z,13.20
2022-08-17T02:08:39.330Z,19.60
2022-08-17T02:11:16.655Z,7.80
2022-08-17T02:13:45.811Z,8.47
2022-08-17T02:16:13.089Z,9.20
2022-08-17T02:18:40.535Z,10.27
2022-08-17T02:21:07.849Z,9.77
2022-08-17T02:23:36.458Z,13.60
2022-08-17T02:26:04.217Z,7.90
2022-08-17T02:28:31.489Z,9.63
2022-08-17T02:31:04.226Z,10.30
2022-08-17T02:33:42.555Z,8.13
2022-08-17T02:36:10.891Z,8.07
2022-08-17T02:38:38.437Z,10.87
2022-08-17T02:41:05.622Z,8.57
2022-08-17T02:43:32.786Z,8.87
2022-08-17T02:46:01.876Z,9.10
2022-08-17T02:48:31.087Z,7.47
2022-08-17T02:50:59.061Z,10.13
2022-08-17T02:53:26.203Z,7.90
2022-08-17T02:55:53.744Z,8.33
2022-08-17T02:58:35.022Z,10.70
2022-08-17T03:01:05.209Z,11.10
2022-08-17T03:03:32.437Z,8.90
2022-08-17T03:05:59.601Z,8.50
2022-08-17T03:08:26.747Z,8.10
2022-08-17T03:10:53.969Z,8.80
2022-08-17T03:13:21.145Z,8.70
2022-08-17T03:15:48.880Z,11.80
2022-08-17T03:18:25.491Z,8.87
2022-08-17T03:20:54.994Z,10.17
2022-08-17T03:23:24.008Z,8.70
2022-08-17T03:25:53.836Z,6.70
2022-08-17T03:28:21.577Z,10.13
2022-08-17T03:30:48.821Z,7.17
2022-08-17T03:33:17.419Z,7.03
2022-08-17T03:35:44.840Z,7.53
2022-08-17T03:38:12.531Z,6.93
2022-08-17T03:40:59.147Z,7.40
2022-08-17T03:43:27.748Z,6.67
2022-08-17T03:45:55.645Z,9.37
2022-08-17T03:48:24.715Z,8.03
2022-08-17T03:50:52.204Z,10.00
2022-08-17T03:53:19.352Z,15.43
2022-08-17T03:55:46.473Z,9.33
2022-08-17T03:58:13.679Z,7.47
2022-08-17T04:00:40.851Z,9.00
2022-08-17T04:03:08.014Z,7.13
2022-08-17T04:05:37.650Z,7.90
2022-08-17T04:08:05.298Z,9.30
2022-08-17T04:10:33.273Z,9.67
2022-08-17T04:13:01.149Z,7.10
2022-08-17T04:15:29.154Z,9.30
2022-08-17T04:17:56.301Z,7.60
2022-08-17T04:20:24.545Z,11.80
2022-08-17T04:23:00.539Z,7.73
2022-08-17T04:25:27.798Z,8.30
2022-08-17T04:27:55.201Z,8.07
2022-08-17T04:30:22.386Z,10.47
2022-08-17T04:33:04.018Z,8.70
2022-08-17T04:35:34.948Z,9.33
2022-08-17T04:38:03.435Z,7.57
2022-08-17T04:40:30.600Z,12.27
2022-08-17T04:43:01.377Z,9.47
2022-08-17T04:45:32.027Z,7.53
2022-08-17T04:47:59.668Z,6.43
2022-08-17T04:50:26.828Z,6.37
2022-08-17T04:52:56.800Z,8.47
2022-08-17T04:55:25.479Z,6.77
2022-08-17T04:57:52.635Z,8.03
2022-08-17T05:00:19.799Z,7.80
2022-08-17T05:02:49.934Z,7.70
2022-08-17T05:05:18.784Z,7.73
2022-08-17T05:07:45.946Z,6.10
2022-08-17T05:10:13.111Z,7.60
2022-08-17T05:12:41.629Z,5.10
2022-08-17T05:15:11.789Z,5.80
2022-08-17T05:17:38.952Z,7.57
2022-08-17T05:20:06.493Z,7.00
2022-08-17T05:22:33.613Z,6.43
2022-08-17T05:25:02.647Z,5.47
2022-08-17T05:27:35.073Z,6.30
2022-08-17T05:30:04.263Z,5.83
2022-08-17T05:32:38.982Z,6.03
2022-08-17T05:35:07.685Z,5.00
2022-08-17T05:37:34.794Z,5.90
2022-08-17T05:40:02.036Z,7.40
2022-08-17T05:42:29.263Z,6.73
2022-08-17T05:44:57.641Z,5.57
2022-08-17T05:47:26.778Z,6.90
2022-08-17T05:49:54.017Z,7.73
2022-08-17T05:52:27.059Z,9.80
2022-08-17T05:55:00.139Z,7.87
2022-08-17T05:57:37.017Z,10.43
2022-08-17T06:00:14.754Z,6.73
2022-08-17T06:02:49.102Z,10.70
2022-08-17T06:05:25.380Z,12.20
2022-08-17T06:07:55.030Z,10.33
2022-08-17T06:10:27.440Z,6.27
2022-08-17T06:12:58.691Z,7.17
2022-08-17T06:15:30.869Z,9.80
2022-08-17T06:18:00.708Z,6.37
2022-08-17T06:20:30.677Z,9.53
2022-08-17T06:23:03.496Z,5.33
2022-08-17T06:25:32.104Z,8.10
2022-08-17T06:28:02.232Z,6.80
2022-08-17T06:30:57.385Z,8.13
2022-08-17T06:33:21.572Z,5.90
2022-08-17T06:35:52.803Z,9.37
2022-08-17T06:38:38.358Z,6.63
2022-08-17T06:41:09.777Z,5.67
2022-08-17T06:43:46.153Z,9.30
2022-08-17T06:46:17.404Z,8.63
2022-08-17T06:48:47.341Z,11.37
2022-08-17T06:51:18.115Z,7.83
2022-08-17T06:53:47.102Z,8.13
2022-08-17T06:56:15.579Z,8.60
2022-08-17T06:58:43.866Z,12.03
2022-08-17T07:01:14.504Z,8.00
2022-08-17T07:03:45.809Z,11.37
2022-08-17T07:06:16.084Z,8.87
2022-08-17T07:08:47.748Z,10.40
2022-08-17T07:11:15.935Z,9.43
2022-08-17T07:13:51.321Z,11.53
2022-08-17T07:16:20.794Z,12.47
2022-08-17T07:18:50.126Z,10.00
2022-08-17T07:21:26.176Z,8.90
2022-08-17T07:24:07.657Z,13.00
2022-08-17T07:26:34.808Z,10.20
2022-08-17T07:29:02.440Z,10.60
2022-08-17T07:31:29.807Z,11.30
2022-08-17T07:34:01.919Z,11.33
2022-08-17T07:36:30.420Z,10.13
2022-08-17T07:38:58.219Z,18.93
2022-08-17T07:41:25.401Z,11.57
2022-08-17T07:44:13.221Z,13.50
2022-08-17T07:46:50.730Z,10.53
2022-08-17T07:49:20.072Z,8.83
2022-08-17T07:52:13.561Z,10.43
2022-08-17T07:54:49.614Z,10.60
2022-08-17T07:57:34.411Z,13.10
2022-08-17T08:00:11.338Z,12.73
2022-08-17T08:02:45.130Z,12.80
2022-08-17T08:05:13.222Z,12.20
2022-08-17T08:07:50.686Z,15.33
2022-08-17T08:10:27.469Z,14.23
2022-08-17T08:13:01.713Z,11.73
2022-08-17T08:15:33.981Z,10.53
2022-08-17T08:18:02.181Z,10.30
2022-08-17T08:20:52.521Z,12.27
2022-08-17T08:23:27.143Z,12.73
2022-08-17T08:26:00.506Z,15.20
2022-08-17T08:28:30.490Z,15.83
2022-08-17T08:30:59.991Z,13.03
2022-08-17T08:33:32.517Z,13.10
2022-08-17T08:36:03.800Z,11.80
2022-08-17T08:38:39.367Z,14.10
2022-08-17T08:41:15.527Z,11.50
2022-08-17T08:43:50.804Z,12.60
2022-08-17T08:46:25.089Z,13.50
2022-08-17T08:49:16.262Z,12.27
2022-08-17T08:51:48.560Z,16.77
2022-08-17T08:54:26.631Z,15.07
2022-08-17T08:57:22.849Z,14.90
2022-08-17T08:59:58.272Z,12.90
2022-08-17T09:02:35.272Z,13.03
2022-08-17T09:05:14.246Z,14.37
2022-08-17T09:07:47.611Z,11.57
2022-08-17T09:10:21.408Z,14.90
2022-08-17T09:12:55.948Z,14.53
2022-08-17T09:15:25.602Z,12.43
2022-08-17T09:18:21.288Z,16.97
2022-08-17T09:20:50.383Z,18.00
2022-08-17T09:23:23.213Z,13.53
2022-08-17T09:25:55.329Z,15.83
2022-08-17T09:28:28.306Z,19.87
2022-08-17T09:30:58.601Z,14.47
2022-08-17T09:33:26.709Z,19.83
2022-08-17T09:35:56.304Z,16.00
2022-08-17T09:38:32.195Z,16.23
2022-08-17T09:41:06.939Z,23.20
2022-08-17T09:43:36.895Z,17.93
2022-08-17T09:46:07.050Z,14.63
2022-08-17T09:48:38.065Z,20.00
2022-08-17T09:51:08.154Z,15.00
2022-08-17T09:53:36.473Z,15.93
2022-08-17T09:56:12.698Z,14.33
2022-08-17T09:58:45.632Z,15.17
2022-08-17T10:01:17.517Z,18.50
2022-08-17T10:04:01.178Z,15.73
2022-08-17T10:06:31.342Z,21.33
2022-08-17T10:09:02.386Z,16.17
2022-08-17T10:11:34.001Z,20.03
2022-08-17T10:14:36.641Z,17.30
2022-08-17T10:16:56.767Z,15.77
2022-08-17T10:19:28.724Z,16.30
2022-08-17T10:22:01.489Z,19.27
2022-08-17T10:25:21.210Z,19.40
2022-08-17T10:27:36.481Z,13.80
2022-08-17T10:30:04.670Z,18.33
2022-08-17T10:32:33.900Z,19.90
2022-08-17T10:35:25.317Z,18.80
2022-08-17T10:38:13.320Z,21.73
2022-08-17T10:40:45.627Z,19.33
2022-08-17T10:43:21.422Z,16.67
2022-08-17T10:46:27.732Z,23.20
2022-08-17T10:48:40.614Z,20.17
2022-08-17T10:51:08.600Z,19.03
2022-08-17T10:53:57.961Z,19.43
2022-08-17T10:56:39.139Z,22.77
2022-08-17T10:59:07.683Z,15.80
2022-08-17T11:01:53.735Z,20.87
2022-08-17T11:04:25.130Z,18.47
2022-08-17T11:06:59.108Z,19.83
2022-08-17T11:09:34.580Z,19.10
2022-08-17T11:12:14.986Z,21.07
2022-08-17T11:14:46.839Z,18.00
2022-08-17T11:17:20.804Z,21.53
2022-08-17T11:20:08.038Z,19.70
2022-08-17T11:22:45.690Z,22.40
2022-08-17T11:25:15.183Z,15.70
2022-08-17T11:27:42.925Z,18.33
2022-08-17T11:30:14.824Z,18.80
2022-08-17T11:32:47.696Z,18.23
2022-08-17T11:35:25.793Z,21.17
2022-08-17T11:37:58.052Z,18.90
2022-08-17T11:40:42.018Z,22.03
2022-08-17T11:43:28.247Z,20.17
2022-08-17T11:46:11.380Z,21.10
2022-08-17T11:48:41.663Z,21.00
2022-08-17T11:51:12.155Z,22.90
2022-08-17T11:54:31.735Z,23.63
2022-08-17T11:56:56.765Z,21.27
2022-08-17T11:59:42.729Z,22.77
2022-08-17T12:02:27.554Z,25.20
2022-08-17T12:05:03.330Z,23.67
2022-08-17T12:07:31.696Z,24.80
2022-08-17T12:09:59.723Z,20.50
2022-08-17T12:12:29.068Z,27.50
2022-08-17T12:15:12.564Z,24.70
2022-08-17T12:17:52.353Z,28.10
2022-08-17T12:20:22.774Z,25.90
2022-08-17T12:22:52.134Z,24.57
2022-08-17T12:25:22.975Z,24.67
2022-08-17T12:28:06.184Z,25.90
2022-08-17T12:30:35.577Z,26.13
2022-08-17T12:33:02.802Z,24.63
2022-08-17T12:35:33.011Z,24.93
2022-08-17T12:38:00.301Z,28.07
2022-08-17T12:40:29.562Z,26.37
2022-08-17T12:42:58.029Z,27.00
2022-08-17T12:45:26.597Z,27.33
2022-08-17T12:48:00.459Z,25.13
2022-08-17T12:50:28.495Z,26.90
2022-08-17T12:53:02.242Z,24.40
2022-08-17T12:55:32.569Z,26.33
2022-08-17T12:58:01.942Z,26.67
2022-08-17T13:00:30.929Z,26.20
2022-08-17T13:02:59.701Z,29.57
2022-08-17T13:05:28.308Z,35.40
2022-08-17T13:07:56.491Z,29.63
2022-08-17T13:10:32.179Z,29.60
2022-08-17T13:13:00.473Z,27.50
2022-08-17T13:15:30.957Z,28.77
2022-08-17T13:18:00.192Z,29.03
2022-08-17T13:20:27.415Z,29.70
2022-08-17T13:22:55.692Z,31.87
2022-08-17T13:25:23.149Z,29.43
2022-08-17T13:27:53.005Z,28.53
2022-08-17T13:30:22.615Z,27.20
2022-08-17T13:32:50.037Z,27.93
2022-08-17T13:35:40.084Z,30.23
2022-08-17T13:38:08.537Z,34.17
2022-08-17T13:40:40.501Z,31.70
2022-08-17T13:43:09.128Z,38.10
2022-08-17T13:45:51.315Z,31.90
2022-08-17T13:48:21.646Z,37.23
2022-08-17T13:50:49.799Z,35.87
2022-08-17T13:53:18.842Z,30.27
2022-08-17T13:55:51.068Z,33.80
2022-08-17T13:58:24.605Z,35.80
2022-08-17T14:00:52.162Z,32.23
2022-08-17T14:03:19.889Z,34.60
2022-08-17T14:05:47.228Z,37.67
2022-08-17T14:08:15.898Z,36.67
2022-08-17T14:10:43.148Z,36.97
2022-08-17T14:13:10.290Z,38.90
2022-08-17T14:15:55.884Z,38.90
2022-08-17T14:18:55.507Z,38.17
2022-08-17T14:21:11.476Z,34.90
2022-08-17T14:23:38.655Z,36.40
2022-08-17T14:26:05.878Z,34.77
2022-08-17T14:28:33.023Z,37.13
2022-08-17T14:31:04.849Z,36.80
2022-08-17T14:33:32.018Z,38.90
2022-08-17T14:35:59.218Z,38.07
2022-08-17T14:38:26.353Z,44.73
2022-08-17T14:40:53.518Z,36.63
2022-08-17T14:43:21.088Z,41.13
2022-08-17T14:45:48.228Z,40.90
2022-08-17T14:48:16.718Z,36.73
2022-08-17T14:50:44.212Z,39.43
2022-08-17T14:53:14.062Z,33.87
2022-08-17T14:55:41.255Z,37.50
2022-08-17T14:58:08.927Z,38.20
2022-08-17T15:00:36.757Z,35.17
2022-08-17T15:03:03.982Z,34.17
2022-08-17T15:05:33.555Z,32.17
2022-08-17T15:08:01.247Z,34.13
2022-08-17T15:10:29.141Z,33.33
2022-08-17T15:12:56.311Z,34.40
2022-08-17T15:15:23.759Z,40.70
2022-08-17T15:17:50.972Z,35.90
2022-08-17T15:20:19.100Z,30.73
2022-08-17T15:22:48.394Z,32.23
2022-08-17T15:25:15.761Z,30.73
2022-08-17T15:27:43.175Z,30.80
2022-08-17T15:30:10.894Z,33.00
2022-08-17T15:32:39.368Z,33.87
2022-08-17T15:35:07.528Z,35.10
2022-08-17T15:37:34.827Z,31.43
2022-08-17T15:40:03.488Z,34.80
2022-08-17T15:42:30.717Z,42.20
2022-08-17T15:44:57.897Z,41.50
2022-08-17T15:47:25.037Z,32.87
2022-08-17T15:49:55.443Z,42.07
2022-08-17T15:52:26.283Z,39.23
2022-08-17T15:54:54.915Z,47.50
2022-08-17T15:57:23.717Z,40.30
2022-08-17T15:59:54.655Z,37.87
2022-08-17T16:03:14.736Z,41.33
2022-08-17T16:05:15.521Z,38.17
2022-08-17T16:07:45.988Z,37.03
2022-08-17T16:10:18.217Z,37.40
2022-08-17T16:12:47.920Z,42.77
2022-08-17T16:15:15.505Z,39.07
2022-08-17T16:17:42.715Z,40.60
2022-08-17T16:20:20.233Z,40.70
2022-08-17T16:22:49.817Z,38.43
2022-08-17T16:25:18.559Z,38.27
2022-08-17T16:27:46.156Z,40.40
2022-08-17T16:30:17.589Z,35.90
2022-08-17T16:32:45.850Z,36.30
2022-08-17T16:35:13.673Z,36.70
2022-08-17T16:37:45.414Z,31.33
2022-08-17T16:40:13.552Z,25.03
2022-08-17T16:42:40.999Z,23.67
2022-08-17T16:45:09.544Z,22.10
2022-08-17T16:47:38.022Z,21.57
2022-08-17T16:50:05.760Z,19.40
2022-08-17T16:52:33.303Z,20.10
2022-08-17T16:55:00.956Z,18.47
2022-08-17T16:57:28.533Z,20.10
2022-08-17T16:59:55.785Z,19.63
2022-08-17T17:02:27.216Z,19.30
2022-08-17T17:04:59.984Z,18.63
2022-08-17T17:07:45.922Z,19.77
2022-08-17T17:10:16.209Z,20.20
2022-08-17T17:13:02.329Z,22.53
2022-08-17T17:15:33.649Z,19.50
2022-08-17T17:18:06.098Z,16.53
2022-08-17T17:20:38.549Z,19.33
2022-08-17T17:23:08.714Z,16.87
2022-08-17T17:25:41.183Z,18.40
2022-08-17T17:28:21.354Z,15.50
2022-08-17T17:30:51.947Z,16.10
2022-08-17T17:33:20.887Z,14.97
2022-08-17T17:35:50.848Z,12.10
2022-08-17T17:38:21.366Z,11.00
2022-08-17T17:40:50.568Z,11.50
2022-08-17T17:43:37.733Z,11.77
2022-08-17T17:46:27.675Z,12.50
2022-08-17T17:48:56.057Z,11.23
2022-08-17T17:52:05.247Z,14.93
2022-08-17T17:54:21.231Z,13.90
2022-08-17T17:56:52.620Z,14.10
2022-08-17T17:59:22.960Z,11.27
2022-08-17T18:01:56.374Z,13.03
2022-08-17T18:04:26.835Z,11.40
2022-08-17T18:07:01.700Z,12.83
2022-08-17T18:09:34.063Z,12.63
2022-08-17T18:12:08.336Z,13.50
2022-08-17T18:14:40.727Z,11.73
2022-08-17T18:17:07.879Z,12.47
2022-08-17T18:19:37.779Z,12.30
2022-08-17T18:22:07.878Z,12.10
2022-08-17T18:24:42.797Z,13.10
2022-08-17T18:27:19.121Z,12.30
2022-08-17T18:29:47.210Z,12.10
2022-08-17T18:32:26.039Z,11.67
2022-08-17T18:34:54.903Z,14.63
2022-08-17T18:37:31.770Z,12.33
2022-08-17T18:39:58.993Z,12.17
2022-08-17T18:42:27.317Z,12.17
2022-08-17T18:44:55.591Z,12.30
2022-08-17T18:47:24.330Z,11.63
2022-08-17T18:49:53.007Z,16.40
2022-08-17T18:52:23.179Z,10.47
2022-08-17T18:55:09.357Z,10.27
2022-08-17T18:57:38.141Z,14.07
2022-08-17T19:00:11.291Z,11.30
2022-08-17T19:02:48.635Z,10.03
2022-08-17T19:05:26.978Z,10.70
2022-08-17T19:07:54.270Z,12.17
2022-08-17T19:10:24.736Z,10.80
2022-08-17T19:13:00.845Z,10.83
2022-08-17T19:15:30.658Z,13.00
2022-08-17T19:17:59.591Z,11.40
2022-08-17T19:20:29.923Z,11.67
2022-08-17T19:23:02.627Z,12.67
2022-08-17T19:25:32.483Z,10.77
2022-08-17T19:28:03.739Z,18.00
2022-08-17T19:30:31.255Z,13.10
2022-08-17T19:32:58.429Z,11.30
2022-08-17T19:35:27.789Z,11.00
2022-08-17T19:37:59.671Z,9.70
2022-08-17T19:43:23.872Z,11.33
2022-08-17T19:45:56.123Z,12.43
2022-08-17T19:48:29.195Z,10.53
2022-08-17T19:50:59.514Z,14.07
2022-08-17T19:53:54.157Z,12.30
2022-08-17T19:56:22.321Z,12.00
2022-08-17T19:58:56.465Z,13.40
2022-08-17T20:01:34.564Z,14.13
2022-08-17T20:04:07.461Z,18.70
2022-08-17T20:06:37.751Z,14.10
2022-08-17T20:09:14.778Z,14.50
2022-08-17T20:11:44.007Z,17.13
2022-08-17T20:14:13.775Z,19.30
2022-08-17T20:16:40.967Z,16.87
2022-08-17T20:19:10.203Z,21.33
2022-08-17T20:21:42.149Z,18.07
2022-08-17T20:24:17.064Z,20.00
2022-08-17T20:26:55.472Z,19.53
2022-08-17T20:29:37.206Z,19.90
2022-08-17T20:32:13.482Z,19.83
2022-08-17T20:34:40.614Z,23.10
2022-08-17T20:37:08.960Z,24.30
2022-08-17T20:39:38.878Z,22.87
2022-08-17T20:42:08.191Z,24.37
2022-08-17T20:44:37.600Z,21.43
2022-08-17T20:47:07.627Z,25.40
2022-08-17T20:49:41.717Z,28.03
2022-08-17T20:52:10.496Z,24.30
2022-08-17T20:54:45.676Z,30.80
2022-08-17T20:57:33.553Z,24.60
2022-08-17T21:00:03.282Z,28.30
2022-08-17T21:02:30.483Z,25.43
2022-08-17T21:05:05.440Z,29.33
2022-08-17T21:07:47.965Z,27.10
2022-08-17T21:10:16.533Z,32.40
2022-08-17T21:12:44.411Z,25.10
2022-08-17T21:15:23.382Z,32.23
2022-08-17T21:17:58.267Z,28.83
2022-08-17T21:20:32.641Z,29.50
2022-08-17T21:23:14.542Z,25.30
2022-08-17T21:25:52.371Z,28.17
2022-08-17T21:28:30.021Z,31.03
2022-08-17T21:31:03.213Z,29.77
2022-08-17T21:33:32.035Z,31.73
2022-08-17T21:36:21.621Z,28.27
2022-08-17T21:39:00.847Z,31.50
2022-08-17T21:41:30.129Z,32.90
2022-08-17T21:44:01.580Z,35.33
2022-08-17T21:46:30.939Z,32.00
2022-08-17T21:49:03.359Z,30.50
2022-08-17T21:51:43.244Z,34.53
2022-08-17T21:54:17.642Z,33.23
2022-08-17T21:56:46.664Z,33.87
2022-08-17T21:59:20.142Z,35.50
2022-08-17T22:01:53.394Z,34.67
2022-08-17T22:04:25.919Z,36.23
2022-08-17T22:06:57.210Z,35.27
2022-08-17T22:09:25.467Z,36.47
2022-08-17T22:11:58.169Z,40.63
2022-08-17T22:14:26.530Z,34.80
2022-08-17T22:17:17.264Z,33.23
2022-08-17T22:19:46.662Z,45.30
2022-08-17T22:22:28.422Z,37.10
2022-08-17T22:24:57.537Z,44.27
2022-08-17T22:27:39.787Z,37.50
2022-08-17T22:30:14.954Z,40.53
2022-08-17T22:32:44.871Z,39.30
2022-08-17T22:35:30.433Z,40.40
2022-08-17T22:37:57.838Z,48.70
2022-08-17T22:40:26.043Z,47.10
2022-08-17T22:42:53.241Z,44.17
2022-08-17T22:45:20.403Z,51.77
2022-08-17T22:47:48.942Z,56.37
2022-08-17T22:50:24.505Z,56.33
2022-08-17T22:52:58.883Z,56.40
2022-08-17T22:55:26.598Z,58.37
2022-08-17T22:57:53.753Z,52.60
2022-08-17T23:00:32.716Z,65.33
2022-08-17T23:03:08.857Z,55.70
2022-08-17T23:05:36.500Z,58.03
2022-08-17T23:08:03.887Z,57.70
2022-08-17T23:10:31.076Z,68.23
2022-08-17T23:12:58.774Z,66.40
2022-08-17T23:15:26.086Z,67.20
2022-08-17T23:17:53.507Z,63.47
2022-08-17T23:20:22.150Z,64.87
2022-08-17T23:22:52.561Z,74.97
2022-08-17T23:25:25.264Z,79.30
2022-08-17T23:27:52.606Z,81.30
2022-08-17T23:30:19.992Z,69.10
2022-08-17T23:32:53.377Z,69.90
2022-08-17T23:35:40.136Z,73.63
2022-08-17T23:38:08.976Z,77.30
2022-08-17T23:40:36.194Z,73.33
2022-08-17T23:43:04.554Z,74.80
2022-08-17T23:45:37.072Z,78.53
2022-08-17T23:48:04.511Z,75.93
2022-08-17T23:50:33.052Z,87.30
2022-08-17T23:53:00.378Z,92.57
2022-08-17T23:55:27.506Z,94.93
2022-08-17T23:57:54.670Z,89.80
